sensor_id;sensor_type;location;lat;lon;timestamp;P1;durP1;ratioP1;P2;durP2;ratioP2
7444;SDS011;3764;48.126;11.594;2023-05-10T00:01:40;2.22;;;1.23;;
7444;SDS011;3764;48.126;11.594;2023-05-10T00:04:07;1.77;;;1.52;;
7444;SDS011;3764;48.126;11.594;2023-05-10T00:06:34;2.03;;;1.35;;
7444;SDS011;3764;48.126;11.594;2023-05-10T00:09:02;1.55;;;1.20;;
7444;SDS011;3764;48.126;11.594;2023-05-10T00:11:29;1.95;;;1.35;;
7444;SDS011;3764;48.126;11.594;2023-05-10T00:13:56;2.38;;;1.50;;
7444;SDS011;3764;48.126;11.594;2023-05-10T00:16:23;1.98;;;1.63;;
7444;SDS011;3764;48.126;11.594;2023-05-10T00:18:51;5.00;;;1.40;;
7444;SDS011;3764;48.126;11.594;2023-05-10T00:21:18;3.38;;;1.30;;
7444;SDS011;3764;48.126;11.594;2023-05-10T00:23:45;2.35;;;1.30;;
7444;SDS011;3764;48.126;11.594;2023-05-10T00:26:13;2.10;;;1.20;;
7444;SDS011;3764;48.126;11.594;2023-05-10T00:28:41;1.92;;;1.52;;
7444;SDS011;3764;48.126;11.594;2023-05-10T00:31:08;2.22;;;1.33;;
7444;SDS011;3764;48.126;11.594;2023-05-10T00:33:35;1.50;;;1.23;;
7444;SDS011;3764;48.126;11.594;2023-05-10T00:36:03;1.30;;;1.00;;
7444;SDS011;3764;48.126;11.594;2023-05-10T00:38:32;1.92;;;1.20;;
7444;SDS011;3764;48.126;11.594;2023-05-10T00:41:00;1.30;;;1.10;;
7444;SDS011;3764;48.126;11.594;2023-05-10T00:43:29;2.10;;;1.35;;
7444;SDS011;3764;48.126;11.594;2023-05-10T00:45:56;4.82;;;1.70;;
7444;SDS011;3764;48.126;11.594;2023-05-10T00:48:23;2.53;;;1.52;;
7444;SDS011;3764;48.126;11.594;2023-05-10T00:50:50;1.63;;;1.20;;
7444;SDS011;3764;48.126;11.594;2023-05-10T00:53:17;3.75;;;1.30;;
7444;SDS011;3764;48.126;11.594;2023-05-10T00:55:45;1.83;;;1.20;;
7444;SDS011;3764;48.126;11.594;2023-05-10T00:58:12;1.85;;;1.00;;
7444;SDS011;3764;48.126;11.594;2023-05-10T01:00:42;1.63;;;1.20;;
7444;SDS011;3764;48.126;11.594;2023-05-10T01:03:09;1.40;;;0.95;;
7444;SDS011;3764;48.126;11.594;2023-05-10T01:05:37;2.25;;;1.10;;
7444;SDS011;3764;48.126;11.594;2023-05-10T01:08:04;1.30;;;0.90;;
7444;SDS011;3764;48.126;11.594;2023-05-10T01:10:33;1.20;;;0.95;;
7444;SDS011;3764;48.126;11.594;2023-05-10T01:13:01;2.10;;;1.00;;
7444;SDS011;3764;48.126;11.594;2023-05-10T01:15:29;1.20;;;0.93;;
7444;SDS011;3764;48.126;11.594;2023-05-10T01:17:58;1.00;;;0.80;;
7444;SDS011;3764;48.126;11.594;2023-05-10T01:20:26;1.33;;;0.85;;
7444;SDS011;3764;48.126;11.594;2023-05-10T01:23:09;1.35;;;0.80;;
7444;SDS011;3764;48.126;11.594;2023-05-10T01:26:14;1.10;;;0.90;;
7444;SDS011;3764;48.126;11.594;2023-05-10T01:34:58;1.02;;;0.80;;
7444;SDS011;3764;48.126;11.594;2023-05-10T01:37:31;1.10;;;0.70;;
7444;SDS011;3764;48.126;11.594;2023-05-10T01:40:07;2.78;;;1.10;;
7444;SDS011;3764;48.126;11.594;2023-05-10T01:42:40;2.53;;;1.88;;
7444;SDS011;3764;48.126;11.594;2023-05-10T01:45:14;1.95;;;0.90;;
7444;SDS011;3764;48.126;11.594;2023-05-10T01:47:50;1.98;;;1.77;;
7444;SDS011;3764;48.126;11.594;2023-05-10T01:50:27;1.30;;;0.90;;
7444;SDS011;3764;48.126;11.594;2023-05-10T01:52:57;1.00;;;0.85;;
7444;SDS011;3764;48.126;11.594;2023-05-10T01:55:27;1.50;;;1.00;;
7444;SDS011;3764;48.126;11.594;2023-05-10T01:57:58;1.75;;;0.73;;
7444;SDS011;3764;48.126;11.594;2023-05-10T02:00:29;1.10;;;0.70;;
7444;SDS011;3764;48.126;11.594;2023-05-10T02:02:58;1.15;;;0.77;;
7444;SDS011;3764;48.126;11.594;2023-05-10T02:05:30;1.70;;;0.80;;
7444;SDS011;3764;48.126;11.594;2023-05-10T02:07:59;1.10;;;0.90;;
7444;SDS011;3764;48.126;11.594;2023-05-10T02:10:29;1.55;;;1.00;;
7444;SDS011;3764;48.126;11.594;2023-05-10T02:12:58;1.52;;;0.80;;
7444;SDS011;3764;48.126;11.594;2023-05-10T02:15:26;0.90;;;0.80;;
7444;SDS011;3764;48.126;11.594;2023-05-10T02:17:55;1.15;;;0.90;;
7444;SDS011;3764;48.126;11.594;2023-05-10T02:20:25;1.23;;;0.90;;
7444;SDS011;3764;48.126;11.594;2023-05-10T02:22:54;1.20;;;1.00;;
7444;SDS011;3764;48.126;11.594;2023-05-10T02:25:23;3.03;;;1.10;;
7444;SDS011;3764;48.126;11.594;2023-05-10T02:27:51;2.08;;;1.20;;
7444;SDS011;3764;48.126;11.594;2023-05-10T02:30:21;1.50;;;1.10;;
7444;SDS011;3764;48.126;11.594;2023-05-10T02:32:49;1.63;;;0.88;;
7444;SDS011;3764;48.126;11.594;2023-05-10T02:35:17;3.05;;;1.15;;
7444;SDS011;3764;48.126;11.594;2023-05-10T02:37:47;1.27;;;0.85;;
7444;SDS011;3764;48.126;11.594;2023-05-10T02:40:15;1.10;;;0.85;;
7444;SDS011;3764;48.126;11.594;2023-05-10T02:42:43;1.65;;;1.00;;
7444;SDS011;3764;48.126;11.594;2023-05-10T02:45:15;1.40;;;1.00;;
7444;SDS011;3764;48.126;11.594;2023-05-10T02:47:47;2.00;;;0.95;;
7444;SDS011;3764;48.126;11.594;2023-05-10T02:50:14;1.10;;;0.70;;
7444;SDS011;3764;48.126;11.594;2023-05-10T02:52:42;1.20;;;0.95;;
7444;SDS011;3764;48.126;11.594;2023-05-10T02:55:14;3.33;;;1.42;;
7444;SDS011;3764;48.126;11.594;2023-05-10T02:57:56;2.17;;;1.20;;
7444;SDS011;3764;48.126;11.594;2023-05-10T03:00:25;1.20;;;1.00;;
7444;SDS011;3764;48.126;11.594;2023-05-10T03:02:53;1.30;;;0.88;;
7444;SDS011;3764;48.126;11.594;2023-05-10T03:05:20;2.05;;;1.00;;
7444;SDS011;3764;48.126;11.594;2023-05-10T03:07:48;1.17;;;0.88;;
7444;SDS011;3764;48.126;11.594;2023-05-10T03:10:16;1.10;;;0.80;;
7444;SDS011;3764;48.126;11.594;2023-05-10T03:12:52;1.05;;;0.80;;
7444;SDS011;3764;48.126;11.594;2023-05-10T03:15:25;1.25;;;0.90;;
7444;SDS011;3764;48.126;11.594;2023-05-10T03:18:01;1.13;;;1.02;;
7444;SDS011;3764;48.126;11.594;2023-05-10T03:20:35;2.10;;;0.80;;
7444;SDS011;3764;48.126;11.594;2023-05-10T03:23:04;1.10;;;0.90;;
7444;SDS011;3764;48.126;11.594;2023-05-10T03:25:39;1.70;;;1.05;;
7444;SDS011;3764;48.126;11.594;2023-05-10T03:28:09;1.40;;;0.80;;
7444;SDS011;3764;48.126;11.594;2023-05-10T03:30:37;1.45;;;0.77;;
7444;SDS011;3764;48.126;11.594;2023-05-10T03:33:05;1.52;;;0.90;;
7444;SDS011;3764;48.126;11.594;2023-05-10T03:35:33;1.00;;;0.70;;
7444;SDS011;3764;48.126;11.594;2023-05-10T03:38:00;1.52;;;0.70;;
7444;SDS011;3764;48.126;11.594;2023-05-10T03:40:27;1.40;;;0.80;;
7444;SDS011;3764;48.126;11.594;2023-05-10T03:42:58;1.80;;;0.70;;
7444;SDS011;3764;48.126;11.594;2023-05-10T03:45:25;1.40;;;0.80;;
7444;SDS011;3764;48.126;11.594;2023-05-10T03:47:53;1.27;;;0.90;;
7444;SDS011;3764;48.126;11.594;2023-05-10T03:50:20;1.00;;;0.77;;
7444;SDS011;3764;48.126;11.594;2023-05-10T03:52:47;1.40;;;0.90;;
7444;SDS011;3764;48.126;11.594;2023-05-10T03:55:14;1.10;;;0.70;;
7444;SDS011;3764;48.126;11.594;2023-05-10T03:57:42;1.10;;;0.63;;
7444;SDS011;3764;48.126;11.594;2023-05-10T04:00:11;1.00;;;0.70;;
7444;SDS011;3764;48.126;11.594;2023-05-10T04:02:39;1.20;;;0.80;;
7444;SDS011;3764;48.126;11.594;2023-05-10T04:05:06;1.00;;;0.63;;
7444;SDS011;3764;48.126;11.594;2023-05-10T04:07:34;1.75;;;0.70;;
7444;SDS011;3764;48.126;11.594;2023-05-10T04:10:01;1.95;;;0.60;;
7444;SDS011;3764;48.126;11.594;2023-05-10T04:12:29;1.20;;;0.70;;
7444;SDS011;3764;48.126;11.594;2023-05-10T04:14:56;1.00;;;0.80;;
7444;SDS011;3764;48.126;11.594;2023-05-10T04:17:25;0.90;;;0.63;;
7444;SDS011;3764;48.126;11.594;2023-05-10T04:19:52;2.58;;;1.00;;
7444;SDS011;3764;48.126;11.594;2023-05-10T04:22:19;3.55;;;0.80;;
7444;SDS011;3764;48.126;11.594;2023-05-10T04:24:46;2.65;;;0.75;;
7444;SDS011;3764;48.126;11.594;2023-05-10T04:27:13;1.05;;;0.70;;
7444;SDS011;3764;48.126;11.594;2023-05-10T04:29:40;0.90;;;0.60;;
7444;SDS011;3764;48.126;11.594;2023-05-10T04:32:08;1.17;;;0.80;;
7444;SDS011;3764;48.126;11.594;2023-05-10T04:34:37;1.00;;;0.63;;
7444;SDS011;3764;48.126;11.594;2023-05-10T04:37:04;0.90;;;0.63;;
7444;SDS011;3764;48.126;11.594;2023-05-10T04:39:32;1.17;;;0.80;;
7444;SDS011;3764;48.126;11.594;2023-05-10T04:42:00;1.10;;;0.65;;
7444;SDS011;3764;48.126;11.594;2023-05-10T04:44:28;4.40;;;0.73;;
7444;SDS011;3764;48.126;11.594;2023-05-10T04:46:55;1.00;;;0.70;;
7444;SDS011;3764;48.126;11.594;2023-05-10T04:49:22;1.27;;;0.95;;
7444;SDS011;3764;48.126;11.594;2023-05-10T04:51:50;2.30;;;1.05;;
7444;SDS011;3764;48.126;11.594;2023-05-10T04:54:17;1.65;;;1.15;;
7444;SDS011;3764;48.126;11.594;2023-05-10T04:56:44;0.90;;;0.63;;
7444;SDS011;3764;48.126;11.594;2023-05-10T04:59:12;1.05;;;0.70;;
7444;SDS011;3764;48.126;11.594;2023-05-10T05:01:39;1.25;;;0.70;;
7444;SDS011;3764;48.126;11.594;2023-05-10T05:04:06;1.02;;;0.75;;
7444;SDS011;3764;48.126;11.594;2023-05-10T05:06:33;0.95;;;0.70;;
7444;SDS011;3764;48.126;11.594;2023-05-10T05:09:01;1.00;;;0.70;;
7444;SDS011;3764;48.126;11.594;2023-05-10T05:11:29;2.75;;;0.70;;
7444;SDS011;3764;48.126;11.594;2023-05-10T05:13:56;1.45;;;0.70;;
7444;SDS011;3764;48.126;11.594;2023-05-10T05:16:24;2.65;;;1.17;;
7444;SDS011;3764;48.126;11.594;2023-05-10T05:18:51;1.00;;;0.65;;
7444;SDS011;3764;48.126;11.594;2023-05-10T05:21:19;2.65;;;1.45;;
7444;SDS011;3764;48.126;11.594;2023-05-10T05:23:46;1.10;;;0.80;;
7444;SDS011;3764;48.126;11.594;2023-05-10T05:26:15;1.30;;;0.70;;
7444;SDS011;3764;48.126;11.594;2023-05-10T05:28:42;1.08;;;0.70;;
7444;SDS011;3764;48.126;11.594;2023-05-10T05:31:09;0.90;;;0.60;;
7444;SDS011;3764;48.126;11.594;2023-05-10T05:33:36;1.15;;;0.70;;
7444;SDS011;3764;48.126;11.594;2023-05-10T05:36:04;0.90;;;0.60;;
7444;SDS011;3764;48.126;11.594;2023-05-10T05:38:32;1.30;;;0.82;;
7444;SDS011;3764;48.126;11.594;2023-05-10T05:40:59;1.55;;;0.98;;
7444;SDS011;3764;48.126;11.594;2023-05-10T05:43:28;3.55;;;1.15;;
7444;SDS011;3764;48.126;11.594;2023-05-10T05:45:55;1.10;;;0.65;;
7444;SDS011;3764;48.126;11.594;2023-05-10T05:48:23;2.00;;;1.00;;
7444;SDS011;3764;48.126;11.594;2023-05-10T05:50:50;1.60;;;0.85;;
7444;SDS011;3764;48.126;11.594;2023-05-10T05:53:20;1.30;;;0.80;;
7444;SDS011;3764;48.126;11.594;2023-05-10T05:55:50;1.20;;;0.80;;
7444;SDS011;3764;48.126;11.594;2023-05-10T05:58:19;3.55;;;0.93;;
7444;SDS011;3764;48.126;11.594;2023-05-10T06:00:47;1.42;;;0.93;;
7444;SDS011;3764;48.126;11.594;2023-05-10T06:03:14;4.10;;;1.08;;
7444;SDS011;3764;48.126;11.594;2023-05-10T06:05:41;3.55;;;1.08;;
7444;SDS011;3764;48.126;11.594;2023-05-10T06:08:09;3.42;;;1.00;;
7444;SDS011;3764;48.126;11.594;2023-05-10T06:10:36;2.45;;;1.10;;
7444;SDS011;3764;48.126;11.594;2023-05-10T06:13:03;2.90;;;1.50;;
7444;SDS011;3764;48.126;11.594;2023-05-10T06:15:30;1.30;;;0.90;;
7444;SDS011;3764;48.126;11.594;2023-05-10T06:17:59;3.17;;;0.90;;
7444;SDS011;3764;48.126;11.594;2023-05-10T06:20:26;1.30;;;0.90;;
7444;SDS011;3764;48.126;11.594;2023-05-10T06:22:53;2.55;;;1.00;;
7444;SDS011;3764;48.126;11.594;2023-05-10T06:25:20;3.55;;;0.80;;
7444;SDS011;3764;48.126;11.594;2023-05-10T06:27:47;1.20;;;0.90;;
7444;SDS011;3764;48.126;11.594;2023-05-10T06:30:14;0.90;;;0.65;;
7444;SDS011;3764;48.126;11.594;2023-05-10T06:32:41;2.05;;;1.55;;
7444;SDS011;3764;48.126;11.594;2023-05-10T06:35:11;1.33;;;1.05;;
7444;SDS011;3764;48.126;11.594;2023-05-10T06:37:38;4.18;;;2.25;;
7444;SDS011;3764;48.126;11.594;2023-05-10T06:40:06;1.30;;;1.10;;
7444;SDS011;3764;48.126;11.594;2023-05-10T06:42:34;1.40;;;1.15;;
7444;SDS011;3764;48.126;11.594;2023-05-10T06:45:01;2.75;;;1.02;;
7444;SDS011;3764;48.126;11.594;2023-05-10T06:47:29;3.67;;;0.90;;
7444;SDS011;3764;48.126;11.594;2023-05-10T06:49:56;1.30;;;1.00;;
7444;SDS011;3764;48.126;11.594;2023-05-10T06:52:25;2.85;;;1.20;;
7444;SDS011;3764;48.126;11.594;2023-05-10T06:54:52;1.70;;;1.05;;
7444;SDS011;3764;48.126;11.594;2023-05-10T06:57:19;1.25;;;0.90;;
7444;SDS011;3764;48.126;11.594;2023-05-10T06:59:46;2.67;;;1.50;;
7444;SDS011;3764;48.126;11.594;2023-05-10T07:02:13;3.13;;;1.73;;
7444;SDS011;3764;48.126;11.594;2023-05-10T07:04:41;3.95;;;1.60;;
7444;SDS011;3764;48.126;11.594;2023-05-10T07:07:08;1.65;;;1.25;;
7444;SDS011;3764;48.126;11.594;2023-05-10T07:09:36;1.42;;;1.20;;
7444;SDS011;3764;48.126;11.594;2023-05-10T07:12:04;1.83;;;1.60;;
7444;SDS011;3764;48.126;11.594;2023-05-10T07:14:31;2.38;;;1.35;;
7444;SDS011;3764;48.126;11.594;2023-05-10T07:16:58;2.97;;;1.70;;
7444;SDS011;3764;48.126;11.594;2023-05-10T07:19:25;1.75;;;1.30;;
7444;SDS011;3764;48.126;11.594;2023-05-10T07:21:52;1.75;;;1.27;;
7444;SDS011;3764;48.126;11.594;2023-05-10T07:24:19;2.65;;;1.15;;
7444;SDS011;3764;48.126;11.594;2023-05-10T07:26:47;1.80;;;1.30;;
7444;SDS011;3764;48.126;11.594;2023-05-10T07:29:14;1.52;;;1.20;;
7444;SDS011;3764;48.126;11.594;2023-05-10T07:31:41;1.80;;;1.65;;
7444;SDS011;3764;48.126;11.594;2023-05-10T07:34:08;2.45;;;1.42;;
7444;SDS011;3764;48.126;11.594;2023-05-10T07:36:36;1.70;;;1.30;;
7444;SDS011;3764;48.126;11.594;2023-05-10T07:39:03;1.73;;;1.60;;
7444;SDS011;3764;48.126;11.594;2023-05-10T07:41:30;1.85;;;1.25;;
7444;SDS011;3764;48.126;11.594;2023-05-10T07:43:59;2.50;;;1.33;;
7444;SDS011;3764;48.126;11.594;2023-05-10T07:46:26;2.22;;;1.60;;
7444;SDS011;3764;48.126;11.594;2023-05-10T07:48:53;1.90;;;1.60;;
7444;SDS011;3764;48.126;11.594;2023-05-10T07:51:20;1.75;;;1.30;;
7444;SDS011;3764;48.126;11.594;2023-05-10T07:53:47;2.35;;;1.75;;
7444;SDS011;3764;48.126;11.594;2023-05-10T07:56:22;2.00;;;1.48;;
7444;SDS011;3764;48.126;11.594;2023-05-10T07:58:52;1.70;;;1.50;;
7444;SDS011;3764;48.126;11.594;2023-05-10T08:01:21;1.88;;;1.48;;
7444;SDS011;3764;48.126;11.594;2023-05-10T08:03:48;2.30;;;1.80;;
7444;SDS011;3764;48.126;11.594;2023-05-10T08:06:16;2.30;;;1.50;;
7444;SDS011;3764;48.126;11.594;2023-05-10T08:08:45;4.90;;;1.40;;
7444;SDS011;3764;48.126;11.594;2023-05-10T08:11:15;2.33;;;1.20;;
7444;SDS011;3764;48.126;11.594;2023-05-10T08:13:42;2.28;;;1.65;;
7444;SDS011;3764;48.126;11.594;2023-05-10T08:16:10;1.42;;;1.20;;
7444;SDS011;3764;48.126;11.594;2023-05-10T08:18:38;2.50;;;1.20;;
7444;SDS011;3764;48.126;11.594;2023-05-10T08:21:06;1.90;;;1.48;;
7444;SDS011;3764;48.126;11.594;2023-05-10T08:23:34;2.67;;;1.98;;
7444;SDS011;3764;48.126;11.594;2023-05-10T08:26:01;1.60;;;1.15;;
7444;SDS011;3764;48.126;11.594;2023-05-10T08:28:28;1.48;;;0.90;;
7444;SDS011;3764;48.126;11.594;2023-05-10T08:30:55;1.58;;;1.20;;
7444;SDS011;3764;48.126;11.594;2023-05-10T08:33:22;1.95;;;0.98;;
7444;SDS011;3764;48.126;11.594;2023-05-10T08:35:51;1.92;;;1.20;;
7444;SDS011;3764;48.126;11.594;2023-05-10T08:38:18;1.67;;;1.30;;
7444;SDS011;3764;48.126;11.594;2023-05-10T08:40:45;3.85;;;1.10;;
7444;SDS011;3764;48.126;11.594;2023-05-10T08:43:16;2.10;;;1.15;;
7444;SDS011;3764;48.126;11.594;2023-05-10T08:45:43;1.30;;;1.02;;
7444;SDS011;3764;48.126;11.594;2023-05-10T08:48:12;2.42;;;1.20;;
7444;SDS011;3764;48.126;11.594;2023-05-10T08:50:40;4.32;;;0.98;;
7444;SDS011;3764;48.126;11.594;2023-05-10T08:53:10;1.00;;;0.73;;
7444;SDS011;3764;48.126;11.594;2023-05-10T08:55:39;1.40;;;1.17;;
7444;SDS011;3764;48.126;11.594;2023-05-10T08:58:08;1.42;;;1.08;;
7444;SDS011;3764;48.126;11.594;2023-05-10T09:00:36;1.10;;;0.75;;
7444;SDS011;3764;48.126;11.594;2023-05-10T09:03:03;1.73;;;1.27;;
7444;SDS011;3764;48.126;11.594;2023-05-10T09:05:31;3.58;;;0.95;;
7444;SDS011;3764;48.126;11.594;2023-05-10T09:07:58;1.52;;;1.00;;
7444;SDS011;3764;48.126;11.594;2023-05-10T09:10:27;3.55;;;1.10;;
7444;SDS011;3764;48.126;11.594;2023-05-10T09:12:56;3.47;;;1.63;;
7444;SDS011;3764;48.126;11.594;2023-05-10T09:15:23;3.85;;;1.20;;
7444;SDS011;3764;48.126;11.594;2023-05-10T09:17:50;2.67;;;1.30;;
7444;SDS011;3764;48.126;11.594;2023-05-10T09:20:17;2.40;;;1.30;;
7444;SDS011;3764;48.126;11.594;2023-05-10T09:22:45;1.75;;;1.35;;
7444;SDS011;3764;48.126;11.594;2023-05-10T09:25:13;2.33;;;1.52;;
7444;SDS011;3764;48.126;11.594;2023-05-10T09:27:44;2.55;;;1.20;;
7444;SDS011;3764;48.126;11.594;2023-05-10T09:30:15;2.10;;;1.20;;
7444;SDS011;3764;48.126;11.594;2023-05-10T09:32:43;1.83;;;1.00;;
7444;SDS011;3764;48.126;11.594;2023-05-10T09:35:12;3.65;;;1.27;;
7444;SDS011;3764;48.126;11.594;2023-05-10T09:37:40;2.50;;;1.35;;
7444;SDS011;3764;48.126;11.594;2023-05-10T09:40:11;2.20;;;1.38;;
7444;SDS011;3764;48.126;11.594;2023-05-10T09:42:39;3.05;;;0.95;;
7444;SDS011;3764;48.126;11.594;2023-05-10T09:45:10;3.67;;;1.75;;
7444;SDS011;3764;48.126;11.594;2023-05-10T09:47:37;2.45;;;0.93;;
7444;SDS011;3764;48.126;11.594;2023-05-10T09:50:04;1.60;;;0.98;;
7444;SDS011;3764;48.126;11.594;2023-05-10T09:52:45;1.38;;;1.23;;
7444;SDS011;3764;48.126;11.594;2023-05-10T09:55:13;2.00;;;1.25;;
7444;SDS011;3764;48.126;11.594;2023-05-10T09:57:41;5.55;;;1.75;;
7444;SDS011;3764;48.126;11.594;2023-05-10T10:00:10;3.83;;;1.70;;
7444;SDS011;3764;48.126;11.594;2023-05-10T10:02:42;2.45;;;1.30;;
7444;SDS011;3764;48.126;11.594;2023-05-10T10:05:11;3.38;;;1.77;;
7444;SDS011;3764;48.126;11.594;2023-05-10T10:07:38;4.03;;;1.38;;
7444;SDS011;3764;48.126;11.594;2023-05-10T10:10:06;2.28;;;1.25;;
7444;SDS011;3764;48.126;11.594;2023-05-10T10:12:36;3.28;;;1.27;;
7444;SDS011;3764;48.126;11.594;2023-05-10T10:15:04;1.25;;;0.95;;
7444;SDS011;3764;48.126;11.594;2023-05-10T10:17:33;1.63;;;1.05;;
7444;SDS011;3764;48.126;11.594;2023-05-10T10:20:03;1.50;;;1.20;;
7444;SDS011;3764;48.126;11.594;2023-05-10T10:22:31;1.40;;;1.27;;
7444;SDS011;3764;48.126;11.594;2023-05-10T10:24:58;2.28;;;1.42;;
7444;SDS011;3764;48.126;11.594;2023-05-10T10:27:28;3.25;;;1.38;;
7444;SDS011;3764;48.126;11.594;2023-05-10T10:30:08;1.70;;;1.60;;
7444;SDS011;3764;48.126;11.594;2023-05-10T10:32:48;2.65;;;1.17;;
7444;SDS011;3764;48.126;11.594;2023-05-10T10:35:29;1.58;;;1.20;;
7444;SDS011;3764;48.126;11.594;2023-05-10T10:37:57;1.95;;;1.52;;
7444;SDS011;3764;48.126;11.594;2023-05-10T10:40:25;2.63;;;1.10;;
7444;SDS011;3764;48.126;11.594;2023-05-10T10:42:53;1.38;;;1.02;;
7444;SDS011;3764;48.126;11.594;2023-05-10T10:45:21;1.83;;;1.20;;
7444;SDS011;3764;48.126;11.594;2023-05-10T10:47:56;3.92;;;1.30;;
7444;SDS011;3764;48.126;11.594;2023-05-10T10:50:51;1.35;;;1.08;;
7444;SDS011;3764;48.126;11.594;2023-05-10T10:53:23;1.58;;;1.38;;
7444;SDS011;3764;48.126;11.594;2023-05-10T10:56:01;1.52;;;1.20;;
7444;SDS011;3764;48.126;11.594;2023-05-10T10:58:32;3.55;;;1.40;;
7444;SDS011;3764;48.126;11.594;2023-05-10T11:01:13;1.80;;;1.40;;
7444;SDS011;3764;48.126;11.594;2023-05-10T11:06:46;2.17;;;1.15;;
7444;SDS011;3764;48.126;11.594;2023-05-10T11:09:13;2.28;;;1.52;;
7444;SDS011;3764;48.126;11.594;2023-05-10T11:11:50;5.88;;;1.95;;
7444;SDS011;3764;48.126;11.594;2023-05-10T11:14:20;2.60;;;1.38;;
7444;SDS011;3764;48.126;11.594;2023-05-10T11:16:48;1.52;;;1.20;;
7444;SDS011;3764;48.126;11.594;2023-05-10T11:19:17;1.52;;;1.40;;
7444;SDS011;3764;48.126;11.594;2023-05-10T11:21:46;2.65;;;1.80;;
7444;SDS011;3764;48.126;11.594;2023-05-10T11:24:15;1.52;;;1.42;;
7444;SDS011;3764;48.126;11.594;2023-05-10T11:26:43;2.55;;;2.03;;
7444;SDS011;3764;48.126;11.594;2023-05-10T11:29:12;2.85;;;2.35;;
7444;SDS011;3764;48.126;11.594;2023-05-10T11:31:43;3.15;;;2.65;;
7444;SDS011;3764;48.126;11.594;2023-05-10T11:34:12;10.57;;;2.55;;
7444;SDS011;3764;48.126;11.594;2023-05-10T11:36:51;3.10;;;1.80;;
7444;SDS011;3764;48.126;11.594;2023-05-10T11:39:19;3.75;;;1.92;;
7444;SDS011;3764;48.126;11.594;2023-05-10T11:41:47;1.90;;;1.67;;
7444;SDS011;3764;48.126;11.594;2023-05-10T11:44:15;2.95;;;1.42;;
7444;SDS011;3764;48.126;11.594;2023-05-10T11:46:42;2.80;;;1.77;;
7444;SDS011;3764;48.126;11.594;2023-05-10T11:49:09;2.15;;;1.95;;
7444;SDS011;3764;48.126;11.594;2023-05-10T11:51:39;3.47;;;2.33;;
7444;SDS011;3764;48.126;11.594;2023-05-10T11:54:08;2.88;;;2.58;;
7444;SDS011;3764;48.126;11.594;2023-05-10T11:56:36;6.65;;;2.67;;
7444;SDS011;3764;48.126;11.594;2023-05-10T11:59:04;4.88;;;2.95;;
7444;SDS011;3764;48.126;11.594;2023-05-10T12:01:31;3.30;;;2.40;;
7444;SDS011;3764;48.126;11.594;2023-05-10T12:03:58;3.28;;;2.45;;
7444;SDS011;3764;48.126;11.594;2023-05-10T12:06:26;4.05;;;2.10;;
7444;SDS011;3764;48.126;11.594;2023-05-10T12:08:56;2.60;;;1.70;;
7444;SDS011;3764;48.126;11.594;2023-05-10T12:11:24;2.28;;;1.50;;
7444;SDS011;3764;48.126;11.594;2023-05-10T12:13:52;1.55;;;1.20;;
7444;SDS011;3764;48.126;11.594;2023-05-10T12:16:20;1.30;;;1.13;;
7444;SDS011;3764;48.126;11.594;2023-05-10T12:18:49;2.30;;;1.13;;
7444;SDS011;3764;48.126;11.594;2023-05-10T12:21:17;2.22;;;1.55;;
7444;SDS011;3764;48.126;11.594;2023-05-10T12:23:45;2.40;;;1.92;;
7444;SDS011;3764;48.126;11.594;2023-05-10T12:26:14;1.40;;;1.30;;
7444;SDS011;3764;48.126;11.594;2023-05-10T12:28:41;2.75;;;1.23;;
7444;SDS011;3764;48.126;11.594;2023-05-10T12:31:09;2.92;;;1.80;;
7444;SDS011;3764;48.126;11.594;2023-05-10T12:33:36;1.98;;;1.70;;
7444;SDS011;3764;48.126;11.594;2023-05-10T12:36:06;1.55;;;1.30;;
7444;SDS011;3764;48.126;11.594;2023-05-10T12:38:35;5.00;;;1.80;;
7444;SDS011;3764;48.126;11.594;2023-05-10T12:41:03;4.40;;;1.67;;
7444;SDS011;3764;48.126;11.594;2023-05-10T12:43:32;2.78;;;1.35;;
7444;SDS011;3764;48.126;11.594;2023-05-10T12:46:04;3.58;;;1.92;;
7444;SDS011;3764;48.126;11.594;2023-05-10T12:48:31;3.20;;;1.38;;
7444;SDS011;3764;48.126;11.594;2023-05-10T12:51:00;2.53;;;1.63;;
7444;SDS011;3764;48.126;11.594;2023-05-10T12:53:27;1.30;;;1.20;;
7444;SDS011;3764;48.126;11.594;2023-05-10T12:55:54;2.90;;;2.03;;
7444;SDS011;3764;48.126;11.594;2023-05-10T12:58:21;1.90;;;1.45;;
7444;SDS011;3764;48.126;11.594;2023-05-10T13:00:50;2.97;;;1.95;;
7444;SDS011;3764;48.126;11.594;2023-05-10T13:03:18;3.20;;;1.90;;
7444;SDS011;3764;48.126;11.594;2023-05-10T13:05:45;2.60;;;1.92;;
7444;SDS011;3764;48.126;11.594;2023-05-10T13:08:12;2.17;;;1.70;;
7444;SDS011;3764;48.126;11.594;2023-05-10T13:10:39;3.83;;;1.50;;
7444;SDS011;3764;48.126;11.594;2023-05-10T13:13:06;2.10;;;1.58;;
7444;SDS011;3764;48.126;11.594;2023-05-10T13:15:33;2.70;;;1.80;;
7444;SDS011;3764;48.126;11.594;2023-05-10T13:18:02;4.32;;;1.50;;
7444;SDS011;3764;48.126;11.594;2023-05-10T13:20:29;3.30;;;2.05;;
7444;SDS011;3764;48.126;11.594;2023-05-10T13:22:56;2.85;;;1.60;;
7444;SDS011;3764;48.126;11.594;2023-05-10T13:25:23;4.00;;;1.83;;
7444;SDS011;3764;48.126;11.594;2023-05-10T13:27:50;4.88;;;2.10;;
7444;SDS011;3764;48.126;11.594;2023-05-10T13:30:18;5.57;;;2.90;;
7444;SDS011;3764;48.126;11.594;2023-05-10T13:32:45;4.07;;;2.88;;
7444;SDS011;3764;48.126;11.594;2023-05-10T13:35:14;3.30;;;1.98;;
7444;SDS011;3764;48.126;11.594;2023-05-10T13:37:41;3.58;;;1.90;;
7444;SDS011;3764;48.126;11.594;2023-05-10T13:40:08;4.22;;;2.15;;
7444;SDS011;3764;48.126;11.594;2023-05-10T13:42:35;2.47;;;1.58;;
7444;SDS011;3764;48.126;11.594;2023-05-10T13:45:02;2.22;;;1.92;;
7444;SDS011;3764;48.126;11.594;2023-05-10T13:47:30;3.15;;;2.10;;
7444;SDS011;3764;48.126;11.594;2023-05-10T13:49:57;2.25;;;2.05;;
7444;SDS011;3764;48.126;11.594;2023-05-10T13:52:26;4.45;;;2.15;;
7444;SDS011;3764;48.126;11.594;2023-05-10T13:54:53;3.40;;;1.90;;
7444;SDS011;3764;48.126;11.594;2023-05-10T13:57:21;2.58;;;1.90;;
7444;SDS011;3764;48.126;11.594;2023-05-10T13:59:49;4.50;;;2.10;;
7444;SDS011;3764;48.126;11.594;2023-05-10T14:02:16;2.13;;;1.70;;
7444;SDS011;3764;48.126;11.594;2023-05-10T14:04:43;3.78;;;2.42;;
7444;SDS011;3764;48.126;11.594;2023-05-10T14:07:10;3.22;;;2.13;;
7444;SDS011;3764;48.126;11.594;2023-05-10T14:09:39;5.53;;;2.28;;
7444;SDS011;3764;48.126;11.594;2023-05-10T14:12:06;2.75;;;1.70;;
7444;SDS011;3764;48.126;11.594;2023-05-10T14:14:33;2.88;;;2.08;;
7444;SDS011;3764;48.126;11.594;2023-05-10T14:17:00;4.43;;;2.45;;
7444;SDS011;3764;48.126;11.594;2023-05-10T14:19:27;2.60;;;2.05;;
7444;SDS011;3764;48.126;11.594;2023-05-10T14:21:57;4.80;;;2.65;;
7444;SDS011;3764;48.126;11.594;2023-05-10T14:24:24;3.35;;;2.15;;
7444;SDS011;3764;48.126;11.594;2023-05-10T14:26:53;2.00;;;1.70;;
7444;SDS011;3764;48.126;11.594;2023-05-10T14:29:20;3.22;;;2.10;;
7444;SDS011;3764;48.126;11.594;2023-05-10T14:31:47;2.20;;;1.70;;
7444;SDS011;3764;48.126;11.594;2023-05-10T14:34:14;2.13;;;1.70;;
7444;SDS011;3764;48.126;11.594;2023-05-10T14:36:41;2.55;;;2.13;;
7444;SDS011;3764;48.126;11.594;2023-05-10T14:39:08;5.22;;;2.28;;
7444;SDS011;3764;48.126;11.594;2023-05-10T14:41:37;6.00;;;2.25;;
7444;SDS011;3764;48.126;11.594;2023-05-10T14:44:07;6.85;;;2.50;;
7444;SDS011;3764;48.126;11.594;2023-05-10T14:46:35;2.80;;;1.98;;
7444;SDS011;3764;48.126;11.594;2023-05-10T14:49:02;5.32;;;2.15;;
7444;SDS011;3764;48.126;11.594;2023-05-10T14:51:29;3.15;;;1.40;;
7444;SDS011;3764;48.126;11.594;2023-05-10T14:53:56;2.80;;;1.60;;
7444;SDS011;3764;48.126;11.594;2023-05-10T14:56:23;1.83;;;1.30;;
7444;SDS011;3764;48.126;11.594;2023-05-10T14:58:51;1.67;;;1.17;;
7444;SDS011;3764;48.126;11.594;2023-05-10T15:01:20;1.52;;;1.05;;
7444;SDS011;3764;48.126;11.594;2023-05-10T15:03:47;3.80;;;1.60;;
7444;SDS011;3764;48.126;11.594;2023-05-10T15:06:14;1.95;;;1.35;;
7444;SDS011;3764;48.126;11.594;2023-05-10T15:08:42;1.80;;;1.33;;
7444;SDS011;3764;48.126;11.594;2023-05-10T15:11:09;1.40;;;1.23;;
7444;SDS011;3764;48.126;11.594;2023-05-10T15:13:36;2.15;;;1.30;;
7444;SDS011;3764;48.126;11.594;2023-05-10T15:16:03;2.95;;;1.45;;
7444;SDS011;3764;48.126;11.594;2023-05-10T15:18:32;1.95;;;1.40;;